createdAt,value
2023-01-08T00:01:56.134Z,6.82
2023-01-08T00:04:24.218Z,6.91
2023-01-08T00:06:52.496Z,7.15
2023-01-08T00:09:23.233Z,7.20
2023-01-08T00:12:00.042Z,7.14
2023-01-08T00:14:29.555Z,7.19
2023-01-08T00:16:57.867Z,7.16
2023-01-08T00:19:28.650Z,7.37
2023-01-08T00:21:57.905Z,7.48
2023-01-08T00:24:25.923Z,7.36
2023-01-08T00:26:53.964Z,7.42
2023-01-08T00:29:22.066Z,7.76
2023-01-08T00:31:51.492Z,7.63
2023-01-08T00:34:19.511Z,7.88
2023-01-08T00:36:47.586Z,7.45
2023-01-08T00:39:15.624Z,7.75
2023-01-08T00:41:45.422Z,7.45
2023-01-08T00:44:16.403Z,7.78
2023-01-08T00:46:44.515Z,7.54
2023-01-08T00:49:13.890Z,7.48
2023-01-08T00:51:41.989Z,7.47
2023-01-08T00:54:10.654Z,7.84
2023-01-08T00:56:38.696Z,7.33
2023-01-08T00:59:06.749Z,7.03
2023-01-08T01:01:34.981Z,7.23
2023-01-08T01:04:05.476Z,7.07
2023-01-08T01:06:34.846Z,7.26
2023-01-08T01:09:02.933Z,7.42
2023-01-08T01:11:31.019Z,7.31
2023-01-08T01:13:59.146Z,7.37
2023-01-08T01:16:32.356Z,6.95
2023-01-08T01:19:00.483Z,6.94
2023-01-08T01:21:29.570Z,6.78
2023-01-08T01:23:59.862Z,7.01
2023-01-08T01:26:28.195Z,7.26
2023-01-08T01:28:59.728Z,7.44
2023-01-08T01:31:31.329Z,7.34
2023-01-08T01:33:59.879Z,7.56
2023-01-08T01:36:27.944Z,7.45
2023-01-08T01:38:57.231Z,7.51
2023-01-08T01:41:28.404Z,7.53
2023-01-08T01:43:57.029Z,7.44
2023-01-08T01:46:28.981Z,7.89
2023-01-08T01:49:00.993Z,7.54
2023-01-08T01:51:32.517Z,6.75
2023-01-08T01:54:01.815Z,6.92
2023-01-08T01:56:31.943Z,7.23
2023-01-08T01:59:02.106Z,6.75
2023-01-08T02:01:31.262Z,6.90
2023-01-08T02:03:59.515Z,7.05
2023-01-08T02:06:34.958Z,7.21
2023-01-08T02:09:05.348Z,7.31
2023-01-08T02:11:40.267Z,7.55
2023-01-08T02:14:14.992Z,7.66
2023-01-08T02:16:46.738Z,7.91
2023-01-08T02:19:24.124Z,7.72
2023-01-08T02:21:59.965Z,8.23
2023-01-08T02:24:31.628Z,8.02
2023-01-08T02:27:02.676Z,7.61
2023-01-08T02:32:41.228Z,7.98
2023-01-08T02:35:10.313Z,7.89
2023-01-08T02:37:38.737Z,8.10
2023-01-08T02:40:18.057Z,7.82
2023-01-08T02:42:51.359Z,7.66
2023-01-08T02:45:28.073Z,8.27
2023-01-08T02:48:02.766Z,7.89
2023-01-08T02:50:33.293Z,8.21
2023-01-08T02:53:04.197Z,7.84
2023-01-08T02:55:34.435Z,8.47
2023-01-08T02:58:04.715Z,8.29
2023-01-08T03:00:33.297Z,8.02
2023-01-08T03:03:04.717Z,8.21
2023-01-08T03:05:33.584Z,8.10
2023-01-08T03:08:01.842Z,8.26
2023-01-08T03:10:31.523Z,8.26
2023-01-08T03:13:01.725Z,7.80
2023-01-08T03:15:33.499Z,7.85
2023-01-08T03:18:03.095Z,7.88
2023-01-08T03:20:33.222Z,8.22
2023-01-08T03:23:03.710Z,7.89
2023-01-08T03:25:31.957Z,8.12
2023-01-08T03:28:02.382Z,8.09
2023-01-08T03:30:32.442Z,8.15
2023-01-08T03:33:02.069Z,7.68
2023-01-08T03:35:31.054Z,7.77
2023-01-08T03:38:04.320Z,8.23
2023-01-08T03:40:36.421Z,7.87
2023-01-08T03:43:04.465Z,8.54
2023-01-08T03:45:34.037Z,8.44
2023-01-08T03:48:05.611Z,8.05
2023-01-08T03:50:33.860Z,7.83
2023-01-08T03:53:02.053Z,7.92
2023-01-08T03:55:30.124Z,7.63
2023-01-08T03:57:58.092Z,7.71
2023-01-08T04:00:26.460Z,7.90
2023-01-08T04:02:55.939Z,7.94
2023-01-08T04:05:24.157Z,8.10
2023-01-08T04:07:52.301Z,8.01
2023-01-08T04:10:20.382Z,8.26
2023-01-08T04:12:48.500Z,8.17
2023-01-08T04:15:16.756Z,8.36
2023-01-08T04:17:44.765Z,8.00
2023-01-08T04:20:14.314Z,8.22
2023-01-08T04:22:42.402Z,8.03
2023-01-08T04:25:10.524Z,8.44
2023-01-08T04:27:40.820Z,7.99
2023-01-08T04:30:11.853Z,8.20
2023-01-08T04:32:42.383Z,8.22
2023-01-08T04:35:10.806Z,8.05
2023-01-08T04:37:40.137Z,8.14
2023-01-08T04:40:08.624Z,8.06
2023-01-08T04:42:36.732Z,8.44
2023-01-08T04:45:05.548Z,8.53
2023-01-08T04:47:33.907Z,8.72
2023-01-08T04:50:02.038Z,8.85
2023-01-08T04:52:30.466Z,8.96
2023-01-08T04:55:07.187Z,8.90
2023-01-08T04:57:35.496Z,9.08
2023-01-08T05:00:03.516Z,8.89
2023-01-08T05:02:31.740Z,9.01
2023-01-08T05:04:59.884Z,9.05
2023-01-08T05:07:27.998Z,9.13
2023-01-08T05:09:56.320Z,9.16
2023-01-08T05:12:25.837Z,9.08
2023-01-08T05:14:53.978Z,8.98
2023-01-08T05:17:22.157Z,9.18
2023-01-08T05:19:50.203Z,8.96
2023-01-08T05:22:18.514Z,9.12
2023-01-08T05:24:48.747Z,9.19
2023-01-08T05:27:16.996Z,9.14
2023-01-08T05:29:46.735Z,9.10
2023-01-08T05:32:15.765Z,8.98
2023-01-08T05:34:44.096Z,8.97
2023-01-08T05:37:12.483Z,9.10
2023-01-08T05:39:40.577Z,8.93
2023-01-08T05:42:08.756Z,8.87
2023-01-08T05:44:36.807Z,8.62
2023-01-08T05:47:06.246Z,8.96
2023-01-08T05:49:34.398Z,8.87
2023-01-08T05:52:02.542Z,8.91
2023-01-08T05:54:30.579Z,8.96
2023-01-08T05:56:58.540Z,8.82
2023-01-08T05:59:26.647Z,8.88
2023-01-08T06:01:55.202Z,8.64
2023-01-08T06:04:24.751Z,8.61
2023-01-08T06:06:52.976Z,8.91
2023-01-08T06:09:21.196Z,8.80
2023-01-08T06:11:49.681Z,8.84
2023-01-08T06:14:18.008Z,8.94
2023-01-08T06:16:46.280Z,8.81
2023-01-08T06:19:14.507Z,8.87
2023-01-08T06:21:43.913Z,8.99
2023-01-08T06:24:12.067Z,9.04
2023-01-08T06:26:41.336Z,8.99
2023-01-08T06:29:09.380Z,9.13
2023-01-08T06:31:37.459Z,9.06
2023-01-08T06:34:05.557Z,9.16
2023-01-08T06:36:33.620Z,9.05
2023-01-08T06:39:03.203Z,9.28
2023-01-08T06:41:31.455Z,9.05
2023-01-08T06:44:01.586Z,9.32
2023-01-08T06:46:29.717Z,9.22
2023-01-08T06:48:57.785Z,9.22
2023-01-08T06:51:25.922Z,9.13
2023-01-08T06:53:54.091Z,9.20
2023-01-08T06:56:23.553Z,9.14
2023-01-08T06:58:51.855Z,9.33
2023-01-08T07:01:20.032Z,9.14
2023-01-08T07:03:48.151Z,9.22
2023-01-08T07:06:17.124Z,9.46
2023-01-08T07:08:45.577Z,9.25
2023-01-08T07:11:14.280Z,9.26
2023-01-08T07:13:46.272Z,9.38
2023-01-08T07:16:15.941Z,9.22
2023-01-08T07:18:44.889Z,9.22
2023-01-08T07:21:13.008Z,9.32
2023-01-08T07:23:41.939Z,9.39
2023-01-08T07:26:10.014Z,9.27
2023-01-08T07:28:38.551Z,9.37
2023-01-08T07:31:08.253Z,9.36
2023-01-08T07:33:36.917Z,9.32
2023-01-08T07:36:05.655Z,9.12
2023-01-08T07:38:33.754Z,9.18
2023-01-08T07:41:01.751Z,9.23
2023-01-08T07:43:30.334Z,9.24
2023-01-08T07:45:58.798Z,9.33
2023-01-08T07:48:28.164Z,9.19
2023-01-08T07:51:01.676Z,9.26
2023-01-08T07:53:30.124Z,9.19
2023-01-08T07:56:01.653Z,9.28
2023-01-08T07:58:30.170Z,9.24
2023-01-08T08:00:59.453Z,9.26
2023-01-08T08:03:29.064Z,9.16
2023-01-08T08:05:57.202Z,9.24
2023-01-08T08:08:25.291Z,9.20
2023-01-08T08:10:53.348Z,9.23
2023-01-08T08:13:21.417Z,9.19
2023-01-08T08:15:49.578Z,9.26
2023-01-08T08:18:17.671Z,9.13
2023-01-08T08:20:47.299Z,9.13
2023-01-08T08:23:16.251Z,9.13
2023-01-08T08:25:44.444Z,9.38
2023-01-08T08:28:12.997Z,9.30
2023-01-08T08:30:42.693Z,9.20
2023-01-08T08:33:11.481Z,9.22
2023-01-08T08:35:39.732Z,9.14
2023-01-08T08:38:09.151Z,9.25
2023-01-08T08:40:37.257Z,9.08
2023-01-08T08:43:05.629Z,9.28
2023-01-08T08:45:33.933Z,9.26
2023-01-08T08:48:06.366Z,9.15
2023-01-08T08:50:34.632Z,9.17
2023-01-08T08:53:02.689Z,9.32
2023-01-08T08:55:32.105Z,9.41
2023-01-08T08:58:03.580Z,9.48
2023-01-08T09:00:31.634Z,9.35
2023-01-08T09:02:59.857Z,9.63
2023-01-08T09:05:30.311Z,9.61
2023-01-08T09:07:58.517Z,9.51
2023-01-08T09:10:26.668Z,9.48
2023-01-08T09:12:56.181Z,9.47
2023-01-08T09:15:24.460Z,9.30
2023-01-08T09:17:55.689Z,9.75
2023-01-08T09:20:23.838Z,9.58
2023-01-08T09:22:52.013Z,9.58
2023-01-08T09:25:20.032Z,9.56
2023-01-08T09:27:48.137Z,9.51
2023-01-08T09:30:17.613Z,9.55
2023-01-08T09:32:45.611Z,9.59
2023-01-08T09:35:13.739Z,9.66
2023-01-08T09:37:41.770Z,9.46
2023-01-08T09:40:11.839Z,9.42
2023-01-08T09:42:39.966Z,9.26
2023-01-08T09:45:13.899Z,9.43
2023-01-08T09:47:44.257Z,9.41
2023-01-08T09:50:13.836Z,9.48
2023-01-08T09:52:43.748Z,9.67
2023-01-08T09:55:13.854Z,9.80
2023-01-08T09:57:44.703Z,9.62
2023-01-08T10:00:15.522Z,9.67
2023-01-08T10:02:54.172Z,9.71
2023-01-08T10:05:22.382Z,9.53
2023-01-08T10:07:50.519Z,9.57
2023-01-08T10:10:22.830Z,9.82
2023-01-08T10:12:51.375Z,9.38
2023-01-08T10:15:20.976Z,9.64
2023-01-08T10:17:54.328Z,9.67
2023-01-08T10:20:23.639Z,9.55
2023-01-08T10:22:54.181Z,9.48
2023-01-08T10:25:23.106Z,9.48
2023-01-08T10:27:52.136Z,9.82
2023-01-08T10:30:21.677Z,9.63
2023-01-08T10:32:54.436Z,9.85
2023-01-08T10:35:25.483Z,9.98
2023-01-08T10:37:53.570Z,9.72
2023-01-08T10:40:24.751Z,9.73
2023-01-08T10:42:53.721Z,9.64
2023-01-08T10:45:23.096Z,9.69
2023-01-08T10:47:53.745Z,9.76
2023-01-08T10:50:23.753Z,9.84
2023-01-08T10:52:56.038Z,9.82
2023-01-08T10:55:25.659Z,9.81
2023-01-08T10:57:57.162Z,10.08
2023-01-08T11:00:26.421Z,9.92
2023-01-08T11:02:57.135Z,9.92
2023-01-08T11:05:32.634Z,10.22
2023-01-08T11:08:01.533Z,9.94
2023-01-08T11:10:30.163Z,9.94
2023-01-08T11:13:00.743Z,9.82
2023-01-08T11:15:30.981Z,9.78
2023-01-08T11:18:17.718Z,9.91
2023-01-08T11:20:46.044Z,9.87
2023-01-08T11:23:18.365Z,9.94
2023-01-08T11:25:48.816Z,9.87
2023-01-08T11:28:20.400Z,10.21
2023-01-08T11:30:52.052Z,10.21
2023-01-08T11:33:23.889Z,10.44
2023-01-08T11:35:55.370Z,10.24
2023-01-08T11:38:23.440Z,10.21
2023-01-08T11:40:52.026Z,10.57
2023-01-08T11:43:26.164Z,10.42
2023-01-08T11:46:10.795Z,10.38
2023-01-08T11:48:51.112Z,10.34
2023-01-08T11:51:29.680Z,10.26
2023-01-08T11:54:04.431Z,10.79
2023-01-08T11:56:39.482Z,10.32
2023-01-08T11:59:12.353Z,10.71
2023-01-08T12:01:49.868Z,10.78
2023-01-08T12:04:34.443Z,10.83
2023-01-08T12:07:08.635Z,11.22
2023-01-08T12:09:40.283Z,10.89
2023-01-08T12:12:14.578Z,11.03
2023-01-08T12:14:47.222Z,11.02
2023-01-08T12:17:26.341Z,11.47
2023-01-08T12:20:07.952Z,11.06
2023-01-08T12:22:48.990Z,10.79
2023-01-08T12:25:28.688Z,10.81
2023-01-08T12:28:02.266Z,10.85
2023-01-08T12:30:38.460Z,10.79
2023-01-08T12:33:10.687Z,10.96
2023-01-08T12:35:41.941Z,11.19
2023-01-08T12:38:12.617Z,11.08
2023-01-08T12:40:42.108Z,10.65
2023-01-08T12:43:14.975Z,10.75
2023-01-08T12:45:45.572Z,10.56
2023-01-08T12:48:16.245Z,10.97
2023-01-08T12:50:52.704Z,10.81
2023-01-08T12:53:26.717Z,10.61
2023-01-08T12:56:03.624Z,10.61
2023-01-08T12:58:35.271Z,10.72
2023-01-08T13:01:12.717Z,10.54
2023-01-08T13:03:41.107Z,10.48
2023-01-08T13:06:12.141Z,10.51
2023-01-08T13:08:41.893Z,10.52
2023-01-08T13:11:10.243Z,10.58
2023-01-08T13:13:41.790Z,10.80
2023-01-08T13:16:18.359Z,10.89
2023-01-08T13:18:56.795Z,10.96
2023-01-08T13:21:33.489Z,11.06
2023-01-08T13:24:02.734Z,11.41
2023-01-08T13:26:31.735Z,11.20
2023-01-08T13:29:18.435Z,11.05
2023-01-08T13:31:46.586Z,11.39
2023-01-08T13:34:22.765Z,11.06
2023-01-08T13:36:58.485Z,11.07
2023-01-08T13:39:32.828Z,12.04
2023-01-08T13:42:02.805Z,11.45
2023-01-08T13:44:31.660Z,11.32
2023-01-08T13:47:01.440Z,11.36
2023-01-08T13:49:36.317Z,11.02
2023-01-08T13:52:06.409Z,10.72
2023-01-08T13:54:38.748Z,10.60
2023-01-08T13:57:09.307Z,10.64
2023-01-08T13:59:39.243Z,10.58
2023-01-08T14:02:23.573Z,10.55
2023-01-08T14:04:52.306Z,10.48
2023-01-08T14:07:23.601Z,10.52
2023-01-08T14:09:51.772Z,10.88
2023-01-08T14:12:21.650Z,11.48
2023-01-08T14:14:51.829Z,11.71
2023-01-08T14:17:21.365Z,11.51
2023-01-08T14:19:49.686Z,11.26
2023-01-08T14:22:19.732Z,11.46
2023-01-08T14:24:54.791Z,11.23
2023-01-08T14:27:24.757Z,11.41
2023-01-08T14:29:53.162Z,11.36
2023-01-08T14:32:22.670Z,11.23
2023-01-08T14:34:51.860Z,11.43
2023-01-08T14:37:20.117Z,11.50
2023-01-08T14:39:56.524Z,11.14
2023-01-08T14:42:47.142Z,11.07
2023-01-08T14:45:17.702Z,11.11
2023-01-08T14:47:49.152Z,11.06
2023-01-08T14:50:19.753Z,11.17
2023-01-08T14:52:48.096Z,10.93
2023-01-08T14:55:19.348Z,11.42
2023-01-08T14:57:48.249Z,10.99
2023-01-08T15:00:18.176Z,10.92
2023-01-08T15:02:47.266Z,10.80
2023-01-08T15:05:19.263Z,10.73
2023-01-08T15:07:58.241Z,10.76
2023-01-08T15:10:38.605Z,10.77
2023-01-08T15:13:07.601Z,10.36
2023-01-08T15:15:37.948Z,10.34
2023-01-08T15:18:07.097Z,10.42
2023-01-08T15:20:35.692Z,10.43
2023-01-08T15:23:03.920Z,10.45
2023-01-08T15:25:32.137Z,10.45
2023-01-08T15:28:03.054Z,10.30
2023-01-08T15:30:35.028Z,10.58
2023-01-08T15:33:10.168Z,10.24
2023-01-08T15:35:38.237Z,10.22
2023-01-08T15:38:07.254Z,10.17
2023-01-08T15:40:35.464Z,9.87
2023-01-08T15:43:09.918Z,9.92
2023-01-08T15:45:38.987Z,9.91
2023-01-08T15:48:07.538Z,9.92
2023-01-08T15:50:38.592Z,9.86
2023-01-08T15:53:08.461Z,9.96
2023-01-08T15:55:38.595Z,9.81
2023-01-08T15:58:07.998Z,9.95
2023-01-08T16:00:36.100Z,10.00
2023-01-08T16:03:07.077Z,9.77
2023-01-08T16:05:37.420Z,9.83
2023-01-08T16:08:05.982Z,10.13
2023-01-08T16:10:34.148Z,9.78
2023-01-08T16:13:02.283Z,9.83
2023-01-08T16:15:34.061Z,10.06
2023-01-08T16:18:02.155Z,9.72
2023-01-08T16:20:30.244Z,9.49
2023-01-08T16:22:58.324Z,9.63
2023-01-08T16:25:26.405Z,9.90
2023-01-08T16:27:54.503Z,9.61
2023-01-08T16:30:22.550Z,9.58
2023-01-08T16:32:53.388Z,9.72
2023-01-08T16:35:22.231Z,9.65
2023-01-08T16:37:50.280Z,9.59
2023-01-08T16:40:19.000Z,9.77
2023-01-08T16:42:49.331Z,9.82
2023-01-08T16:45:17.402Z,9.86
2023-01-08T16:47:45.487Z,9.59
2023-01-08T16:50:17.931Z,9.79
2023-01-08T16:52:46.065Z,9.69
2023-01-08T16:55:14.168Z,9.23
2023-01-08T16:57:42.355Z,9.41
2023-01-08T17:00:11.154Z,9.44
2023-01-08T17:02:41.329Z,9.53
2023-01-08T17:05:09.755Z,9.79
2023-01-08T17:07:39.125Z,9.46
2023-01-08T17:10:07.717Z,9.58
2023-01-08T17:12:55.171Z,9.51
2023-01-08T17:15:23.243Z,9.82
2023-01-08T17:17:51.278Z,9.64
2023-01-08T17:20:20.140Z,9.59
2023-01-08T17:22:50.007Z,9.53
2023-01-08T17:25:18.220Z,10.08
2023-01-08T17:27:48.606Z,9.52
2023-01-08T17:30:16.801Z,9.40
2023-01-08T17:32:47.922Z,9.62
2023-01-08T17:35:16.088Z,9.33
2023-01-08T17:37:44.331Z,9.14
2023-01-08T17:40:14.376Z,9.09
2023-01-08T17:42:42.513Z,9.14
2023-01-08T17:45:12.852Z,9.64
2023-01-08T17:47:44.026Z,9.14
2023-01-08T17:50:12.592Z,9.01
2023-01-08T17:52:40.672Z,9.05
2023-01-08T17:55:09.274Z,9.14
2023-01-08T17:57:38.675Z,9.20
2023-01-08T18:00:07.681Z,9.18
2023-01-08T18:02:36.305Z,9.36
2023-01-08T18:05:04.452Z,9.21
2023-01-08T18:07:33.943Z,9.34
2023-01-08T18:10:02.070Z,9.16
2023-01-08T18:12:33.096Z,9.25
2023-01-08T18:15:02.547Z,9.15
2023-01-08T18:17:30.989Z,9.32
2023-01-08T18:19:59.033Z,9.21
2023-01-08T18:22:26.995Z,9.26
2023-01-08T18:24:55.116Z,9.42
2023-01-08T18:27:23.176Z,9.33
2023-01-08T18:29:51.249Z,9.32
2023-01-08T18:32:25.787Z,9.37
2023-01-08T18:34:53.854Z,9.41
2023-01-08T18:37:23.188Z,9.64
2023-01-08T18:39:51.360Z,9.25
2023-01-08T18:42:28.778Z,9.45
2023-01-08T18:44:57.437Z,9.31
2023-01-08T18:47:28.818Z,9.44
2023-01-08T18:50:03.125Z,9.19
2023-01-08T18:52:31.313Z,9.18
2023-01-08T18:54:59.308Z,9.20
2023-01-08T18:57:27.424Z,9.52
2023-01-08T18:59:55.450Z,9.41
2023-01-08T19:02:24.745Z,9.69
2023-01-08T19:04:54.371Z,9.55
2023-01-08T19:07:25.692Z,9.21
2023-01-08T19:09:53.985Z,9.29
2023-01-08T19:12:27.101Z,9.15
2023-01-08T19:14:55.279Z,9.15
2023-01-08T19:17:23.435Z,9.28
2023-01-08T19:19:51.589Z,9.08
2023-01-08T19:22:22.469Z,8.99
2023-01-08T19:24:50.520Z,9.02
2023-01-08T19:27:21.031Z,9.07
2023-01-08T19:29:49.241Z,9.04
2023-01-08T19:32:19.353Z,8.99
2023-01-08T19:34:47.470Z,9.13
2023-01-08T19:37:15.896Z,9.56
2023-01-08T19:39:45.323Z,9.54
2023-01-08T19:42:30.736Z,9.37
2023-01-08T19:44:58.830Z,9.53
2023-01-08T19:47:26.889Z,9.56
2023-01-08T19:49:55.082Z,9.39
2023-01-08T19:52:23.150Z,9.35
2023-01-08T19:54:52.576Z,9.27
2023-01-08T19:57:20.619Z,9.47
2023-01-08T19:59:49.998Z,9.56
2023-01-08T20:02:20.587Z,9.27
2023-01-08T20:04:48.651Z,9.32
2023-01-08T20:07:16.643Z,9.42
2023-01-08T20:09:44.940Z,9.06
2023-01-08T20:12:15.724Z,9.23
2023-01-08T20:14:45.977Z,9.10
2023-01-08T20:17:14.037Z,8.92
2023-01-08T20:19:42.160Z,9.10
2023-01-08T20:22:10.213Z,8.78
2023-01-08T20:24:38.458Z,9.10
2023-01-08T20:27:07.645Z,8.98
2023-01-08T20:29:37.463Z,9.01
2023-01-08T20:32:08.179Z,8.84
2023-01-08T20:34:38.429Z,8.69
2023-01-08T20:37:07.517Z,8.85
2023-01-08T20:39:35.616Z,8.76
2023-01-08T20:42:04.948Z,8.62
2023-01-08T20:44:33.378Z,8.59
2023-01-08T20:47:03.032Z,8.65
2023-01-08T20:49:31.108Z,8.50
2023-01-08T20:52:00.303Z,8.92
2023-01-08T20:54:31.370Z,8.48
2023-01-08T20:57:00.049Z,8.39
2023-01-08T20:59:28.712Z,8.52
2023-01-08T21:01:57.234Z,8.30
2023-01-08T21:04:29.037Z,8.43
2023-01-08T21:06:57.196Z,8.27
2023-01-08T21:09:25.265Z,8.28
2023-01-08T21:11:53.370Z,8.64
2023-01-08T21:14:21.391Z,8.46
2023-01-08T21:16:51.750Z,8.52
2023-01-08T21:19:19.824Z,8.47
2023-01-08T21:21:53.176Z,8.21
2023-01-08T21:24:21.217Z,8.32
2023-01-08T21:26:49.638Z,8.60
2023-01-08T21:29:19.866Z,8.81
2023-01-08T21:31:48.078Z,8.25
2023-01-08T21:34:16.219Z,8.13
2023-01-08T21:36:44.341Z,8.48
2023-01-08T21:39:13.772Z,8.60
2023-01-08T21:41:59.185Z,8.25
2023-01-08T21:44:44.758Z,8.17
2023-01-08T21:47:13.769Z,8.39
2023-01-08T21:49:41.800Z,8.23
2023-01-08T21:52:27.308Z,8.16
2023-01-08T21:54:58.231Z,8.49
2023-01-08T21:57:28.173Z,8.26
2023-01-08T22:02:38.029Z,8.08
2023-01-08T22:05:06.372Z,7.98
2023-01-08T22:07:34.471Z,8.16
2023-01-08T22:10:03.515Z,7.98
2023-01-08T22:12:31.612Z,8.03
2023-01-08T22:14:59.585Z,8.32
2023-01-08T22:17:30.075Z,7.94
2023-01-08T22:20:01.318Z,8.27
2023-01-08T22:22:29.555Z,8.07
2023-01-08T22:24:57.642Z,8.10
2023-01-08T22:27:25.693Z,8.32
2023-01-08T22:29:54.495Z,8.19
2023-01-08T22:32:22.572Z,7.92
2023-01-08T22:34:51.215Z,8.51
2023-01-08T22:37:22.130Z,8.38
2023-01-08T22:39:50.592Z,8.40
2023-01-08T22:42:18.746Z,8.07
2023-01-08T22:44:46.822Z,8.33
2023-01-08T22:47:14.948Z,8.17
2023-01-08T22:49:43.043Z,8.25
2023-01-08T22:52:11.406Z,8.50
2023-01-08T22:54:40.753Z,8.17
2023-01-08T22:57:08.840Z,8.40
2023-01-08T22:59:36.963Z,8.65
2023-01-08T23:02:05.152Z,8.10
2023-01-08T23:04:33.179Z,8.27
2023-01-08T23:07:01.178Z,7.96
2023-01-08T23:09:31.735Z,8.50
2023-01-08T23:12:03.450Z,8.32
2023-01-08T23:14:33.673Z,8.55
2023-01-08T23:17:01.723Z,8.26
2023-01-08T23:19:29.760Z,8.31
2023-01-08T23:21:57.905Z,8.20
2023-01-08T23:24:27.632Z,8.12
2023-01-08T23:26:56.583Z,8.39
2023-01-08T23:29:29.370Z,8.26
2023-01-08T23:31:57.746Z,8.24
2023-01-08T23:34:26.450Z,8.19
2023-01-08T23:36:56.792Z,8.44
2023-01-08T23:39:26.555Z,8.47
2023-01-08T23:41:54.704Z,8.46
2023-01-08T23:44:26.140Z,8.61
2023-01-08T23:46:54.176Z,8.46
2023-01-08T23:49:24.276Z,8.60
2023-01-08T23:51:52.360Z,8.53
2023-01-08T23:54:20.464Z,8.31
2023-01-08T23:56:48.910Z,8.61
2023-01-08T23:59:16.936Z,8.32
